KBFF/BFF METAR and TAF weather

Enter ICAO airport designator
Station Type Date Time Source
KBFF METAR 2018/12/13 14:53 UTC NOAA

KBFF 131453Z AUTO 28006KT 10SM CLR M06/M08 A3023 RMK AO2 SLP266 T10561083 51019


Station Type Date Time Source
KBFF Decoded METAR 2018/12/13 14:53 UTC NOAA

SCOTTSBLUFF HEILIG FIELD, NE, United States (KBFF) 41-52N 103-36W 1203M
Dec 13, 2018 - 09:53 AM EST / 2018.12.13 1453 UTC
Wind: from the W (280 degrees) at 7 MPH (6 KT):0
Visibility: 10 mile(s):0
Sky conditions: clear
Temperature: 21.9 F (-5.6 C)
Windchill: 14 F (-10 C):1
Dew Point: 17.1 F (-8.3 C)
Relative Humidity: 81%
Pressure (altimeter): 30.23 in. Hg (1023 hPa)
Pressure tendency: 0.06 inches (1.9 hPa) higher than three hours ago
ob: KBFF 131453Z AUTO 28006KT 10SM CLR M06/M08 A3023 RMK AO2 SLP266 T10561083 51019
cycle: 15

Station Type Date Time Source
KBFF TAF 2018/12/13 12:34 UTC NOAA

TAF KBFF 131132Z 1312/1412 30012KT P6SM SKC
FM131800 29015G25KT P6SM FEW250
FM140100 31010KT P6SM FEW250


Example: see airport list